createdAt,value
2022-09-07T01:01:40.722Z,99838.50
2022-09-07T01:10:14.790Z,99836.63
2022-09-07T01:12:42.685Z,99823.41
2022-09-07T01:15:11.834Z,99816.53
2022-09-07T01:18:02.447Z,99815.97
2022-09-07T01:20:49.677Z,99792.25
2022-09-07T01:23:57.128Z,99791.63
2022-09-07T01:27:01.305Z,99762.81
2022-09-07T01:29:36.376Z,99739.59
2022-09-07T01:32:13.765Z,99723.38
2022-09-07T01:34:50.959Z,99715.97
2022-09-07T01:37:26.267Z,99711.81
2022-09-07T01:40:02.092Z,99734.25
2022-09-07T01:42:34.870Z,99777.00
2022-09-07T01:45:13.561Z,99794.63
2022-09-07T01:47:45.936Z,99807.94
2022-09-07T01:50:21.200Z,99809.50
2022-09-07T01:52:53.954Z,99803.19
2022-09-07T01:55:30.223Z,99808.72
2022-09-07T01:58:04.421Z,99818.00
2022-09-07T02:00:39.966Z,99860.63
2022-09-07T02:03:14.199Z,99891.63
2022-09-07T02:05:47.449Z,99909.09
2022-09-07T02:08:19.599Z,99901.53
2022-09-07T02:10:53.233Z,99903.81
2022-09-07T02:13:24.716Z,99903.66
2022-09-07T02:16:01.388Z,99919.28
2022-09-07T02:18:37.351Z,99950.56
2022-09-07T02:21:09.990Z,99984.72
2022-09-07T02:23:42.599Z,99980.34
2022-09-07T02:26:17.093Z,99948.16
2022-09-07T02:28:45.395Z,99963.25
2022-09-07T02:31:15.224Z,99932.25
2022-09-07T02:33:43.959Z,99919.63
2022-09-07T02:36:15.024Z,99907.00
2022-09-07T02:38:42.928Z,99888.31
2022-09-07T02:41:33.637Z,99863.72
2022-09-07T02:44:04.796Z,99844.97
2022-09-07T02:46:48.827Z,99835.19
2022-09-07T02:49:31.058Z,99807.00
2022-09-07T02:52:09.359Z,99797.16
2022-09-07T02:54:52.505Z,99776.69
2022-09-07T02:57:33.230Z,99762.28
2022-09-07T03:00:10.529Z,99769.94
2022-09-07T03:02:51.262Z,99761.56
2022-09-07T03:05:23.905Z,99762.47
2022-09-07T03:07:57.950Z,99765.28
2022-09-07T03:10:26.150Z,99755.97
2022-09-07T03:12:54.344Z,99755.47
2022-09-07T03:15:25.339Z,99758.31
2022-09-07T03:17:54.868Z,99765.69
2022-09-07T03:20:24.277Z,99760.69
2022-09-07T03:22:53.209Z,99754.03
2022-09-07T03:25:22.944Z,99767.47
2022-09-07T03:27:51.029Z,99762.81
2022-09-07T03:30:19.023Z,99761.88
2022-09-07T03:32:47.745Z,99761.00
2022-09-07T03:35:17.770Z,99764.09
2022-09-07T03:37:46.078Z,99760.34
2022-09-07T03:40:16.418Z,99772.16
2022-09-07T03:42:44.858Z,99763.28
2022-09-07T03:45:13.417Z,99768.63
2022-09-07T03:47:41.454Z,99773.28
2022-09-07T03:50:11.203Z,99772.47
2022-09-07T03:52:40.694Z,99761.44
2022-09-07T03:55:10.386Z,99757.38
2022-09-07T03:57:40.319Z,99759.47
2022-09-07T04:00:09.354Z,99755.41
2022-09-07T04:02:43.721Z,99748.38
2022-09-07T04:05:12.015Z,99751.91
2022-09-07T04:07:43.249Z,99752.38
2022-09-07T04:10:19.494Z,99760.34
2022-09-07T04:12:47.343Z,99757.63
2022-09-07T04:15:16.408Z,99764.69
2022-09-07T04:17:46.521Z,99779.28
2022-09-07T04:20:15.030Z,99770.63
2022-09-07T04:22:44.957Z,99772.88
2022-09-07T04:25:13.433Z,99781.53
2022-09-07T04:27:41.699Z,99786.75
2022-09-07T04:30:11.079Z,99789.38
2022-09-07T04:32:39.399Z,99795.19
2022-09-07T04:35:09.357Z,99795.28
2022-09-07T04:37:37.829Z,99786.09
2022-09-07T04:40:08.022Z,99799.66
2022-09-07T04:42:36.641Z,99790.59
2022-09-07T04:45:05.291Z,99795.38
2022-09-07T04:47:33.405Z,99803.94
2022-09-07T04:50:01.525Z,99802.28
2022-09-07T04:52:29.609Z,99794.81
2022-09-07T04:54:58.019Z,99788.03
2022-09-07T05:01:29.667Z,99795.00
2022-09-07T05:07:48.190Z,99813.59
2022-09-07T05:10:16.159Z,99822.00
2022-09-07T05:12:44.367Z,99825.31
2022-09-07T05:15:12.489Z,99825.78
2022-09-07T05:17:42.133Z,99820.56
2022-09-07T05:20:10.738Z,99822.53
2022-09-07T05:22:41.195Z,99825.69
2022-09-07T05:25:10.039Z,99829.56
2022-09-07T05:27:38.873Z,99835.25
2022-09-07T05:30:08.213Z,99835.81
2022-09-07T05:32:36.183Z,99833.69
2022-09-07T05:35:06.140Z,99825.38
2022-09-07T05:37:36.737Z,99828.00
2022-09-07T05:40:06.141Z,99835.06
2022-09-07T05:42:36.316Z,99832.34
2022-09-07T05:45:04.838Z,99831.50
2022-09-07T05:47:33.487Z,99826.66
2022-09-07T05:50:02.896Z,99839.72
2022-09-07T05:52:32.413Z,99832.91
2022-09-07T05:55:19.341Z,99844.50
2022-09-07T05:57:48.709Z,99844.22
2022-09-07T06:00:16.819Z,99840.16
2022-09-07T06:02:45.067Z,99846.78
2022-09-07T06:05:13.192Z,99850.91
2022-09-07T06:07:42.637Z,99845.28
2022-09-07T06:12:58.936Z,99839.66
2022-09-07T06:15:27.323Z,99842.81
2022-09-07T06:17:55.224Z,99855.56
2022-09-07T06:20:23.399Z,99851.53
2022-09-07T06:22:53.099Z,99855.63
2022-09-07T06:25:20.933Z,99859.41
2022-09-07T06:27:50.477Z,99852.66
2022-09-07T06:30:19.079Z,99850.25
2022-09-07T06:32:49.623Z,99855.88
2022-09-07T06:35:17.813Z,99860.13
2022-09-07T06:37:47.313Z,99855.28
2022-09-07T06:40:17.362Z,99861.88
2022-09-07T06:42:45.343Z,99860.16
2022-09-07T06:45:16.844Z,99863.16
2022-09-07T06:47:44.786Z,99871.53
2022-09-07T06:50:13.058Z,99868.91
2022-09-07T06:55:31.564Z,99879.13
2022-09-07T06:57:59.880Z,99872.28
2022-09-07T07:00:27.716Z,99873.06
2022-09-07T07:02:56.073Z,99868.88
2022-09-07T07:05:23.823Z,99871.53
2022-09-07T07:07:52.089Z,99871.72
2022-09-07T07:10:24.515Z,99871.94
2022-09-07T07:12:58.298Z,99864.78
2022-09-07T07:15:28.929Z,99877.00
2022-09-07T07:18:05.188Z,99875.91
2022-09-07T07:20:37.666Z,99883.66
2022-09-07T07:23:06.412Z,99878.19
2022-09-07T07:25:35.389Z,99877.84
2022-09-07T07:30:56.811Z,99884.59
2022-09-07T07:33:25.610Z,99883.72
2022-09-07T07:35:53.649Z,99884.78
2022-09-07T07:44:06.745Z,99899.03
2022-09-07T07:46:34.790Z,99909.81
2022-09-07T07:49:02.938Z,99905.06
2022-09-07T07:51:31.770Z,99904.09
2022-09-07T07:54:19.375Z,99900.25
2022-09-07T07:56:47.100Z,99904.22
2022-09-07T07:59:16.372Z,99905.78
2022-09-07T08:01:44.881Z,99906.63
2022-09-07T08:04:14.998Z,99903.91
2022-09-07T08:06:44.524Z,99900.69
2022-09-07T08:09:13.220Z,99905.59
2022-09-07T08:11:42.344Z,99907.75
2022-09-07T08:14:10.227Z,99918.75
2022-09-07T08:16:39.475Z,99913.91
2022-09-07T08:19:07.623Z,99919.22
2022-09-07T08:21:35.634Z,99920.06
2022-09-07T08:24:04.893Z,99933.19
2022-09-07T08:26:33.478Z,99933.16
2022-09-07T08:29:01.674Z,99937.47
2022-09-07T08:31:30.109Z,99934.22
2022-09-07T08:34:00.772Z,99932.91
2022-09-07T08:36:31.788Z,99942.28
2022-09-07T08:39:00.058Z,99948.19
2022-09-07T08:41:49.734Z,99946.34
2022-09-07T08:44:24.108Z,99942.13
2022-09-07T08:46:57.803Z,99946.91
2022-09-07T08:49:36.543Z,99940.66
2022-09-07T08:52:10.637Z,99948.34
2022-09-07T08:54:41.042Z,99952.03
2022-09-07T08:57:25.244Z,99941.78
2022-09-07T08:59:59.033Z,99950.53
2022-09-07T09:02:28.193Z,99953.09
2022-09-07T09:07:55.194Z,99951.91
2022-09-07T09:10:30.335Z,99960.56
2022-09-07T09:13:06.004Z,99961.44
2022-09-07T09:15:59.679Z,99963.00
2022-09-07T09:18:43.057Z,99965.56
2022-09-07T09:21:16.043Z,99966.53
2022-09-07T09:23:47.578Z,99966.19
2022-09-07T09:26:21.289Z,99963.69
2022-09-07T09:28:50.410Z,99968.88
2022-09-07T09:31:20.685Z,99948.25
2022-09-07T09:34:10.553Z,99954.84
2022-09-07T09:36:46.221Z,99947.06
2022-09-07T09:39:34.798Z,99949.59
2022-09-07T09:42:16.361Z,99953.94
2022-09-07T09:44:45.683Z,99948.84
2022-09-07T09:47:31.223Z,99948.63
2022-09-07T09:50:02.453Z,99944.59
2022-09-07T09:52:45.169Z,99939.06
2022-09-07T09:55:35.783Z,99938.81
2022-09-07T10:03:59.598Z,99932.03
2022-09-07T10:06:29.399Z,99926.66
2022-09-07T10:09:06.183Z,99917.94
2022-09-07T10:14:34.180Z,99913.53
2022-09-07T10:17:11.104Z,99911.41
2022-09-07T10:19:41.114Z,99911.53
2022-09-07T10:22:23.695Z,99911.44
2022-09-07T10:24:53.207Z,99903.00
2022-09-07T10:27:29.273Z,99896.19
2022-09-07T10:29:57.348Z,99892.91
2022-09-07T10:32:38.188Z,99897.63
2022-09-07T10:35:14.682Z,99889.03
2022-09-07T10:37:52.605Z,99892.06
2022-09-07T10:40:30.326Z,99879.72
2022-09-07T10:43:24.776Z,99889.06
2022-09-07T10:46:11.901Z,99882.41
2022-09-07T10:48:48.310Z,99883.22
2022-09-07T10:51:19.130Z,99886.16
2022-09-07T10:56:53.476Z,99886.97
2022-09-07T11:02:36.336Z,99882.16
2022-09-07T11:05:19.203Z,99871.41
2022-09-07T11:08:02.438Z,99876.56
2022-09-07T11:10:36.617Z,99870.31
2022-09-07T11:13:09.424Z,99869.81
2022-09-07T11:15:44.139Z,99874.16
2022-09-07T11:18:19.126Z,99879.72
2022-09-07T11:20:55.187Z,99889.31
2022-09-07T11:26:32.563Z,99881.94
2022-09-07T11:32:03.625Z,99880.13
2022-09-07T11:34:38.051Z,99893.81
2022-09-07T11:37:10.862Z,99885.69
2022-09-07T11:39:46.186Z,99885.19
2022-09-07T11:45:17.251Z,99875.94
2022-09-07T11:47:50.459Z,99876.13
2022-09-07T11:50:20.195Z,99867.13
2022-09-07T11:52:55.021Z,99872.56
2022-09-07T11:55:27.489Z,99876.84
2022-09-07T11:58:20.747Z,99876.72
2022-09-07T12:01:03.807Z,99862.56
2022-09-07T12:03:51.960Z,99877.78
2022-09-07T12:06:44.915Z,99876.81
2022-09-07T12:09:27.885Z,99867.38
2022-09-07T12:12:21.866Z,99863.34
2022-09-07T12:15:03.814Z,99856.59
2022-09-07T12:17:59.918Z,99860.81
2022-09-07T12:20:39.278Z,99863.19
2022-09-07T12:23:20.998Z,99860.94
2022-09-07T12:25:51.237Z,99851.69
2022-09-07T12:28:57.847Z,99849.47
2022-09-07T12:31:57.401Z,99836.69
2022-09-07T12:34:53.667Z,99838.19
2022-09-07T12:37:40.772Z,99841.97
2022-09-07T12:40:58.006Z,99820.03
2022-09-07T12:43:46.513Z,99811.78
2022-09-07T12:46:49.987Z,99826.03
2022-09-07T12:49:23.829Z,99839.00
2022-09-07T12:52:02.056Z,99838.66
2022-09-07T12:54:43.092Z,99832.91
2022-09-07T12:57:29.935Z,99829.56
2022-09-07T13:09:34.132Z,99802.22
2022-09-07T13:12:07.202Z,99794.16
2022-09-07T13:14:39.777Z,99779.94
2022-09-07T13:17:44.373Z,99773.19
2022-09-07T13:20:34.785Z,99777.84
2022-09-07T13:23:25.817Z,99777.94
2022-09-07T13:25:58.980Z,99780.03
2022-09-07T13:28:32.769Z,99773.88
2022-09-07T13:31:08.850Z,99774.88
2022-09-07T13:33:50.825Z,99778.22
2022-09-07T13:36:26.631Z,99784.94
2022-09-07T13:38:56.190Z,99782.94
2022-09-07T13:41:30.746Z,99795.16
2022-09-07T13:44:02.870Z,99788.97
2022-09-07T13:46:44.340Z,99765.97
2022-09-07T13:49:22.900Z,99774.63
2022-09-07T13:51:58.406Z,99768.13
2022-09-07T13:54:37.813Z,99775.34
2022-09-07T14:26:27.653Z,99768.00
2022-09-07T14:38:13.068Z,99766.81
2022-09-07T14:40:41.283Z,99755.34
2022-09-07T14:43:33.665Z,99738.13
2022-09-07T14:46:18.385Z,99746.84
2022-09-07T14:48:49.189Z,99747.56
2022-09-07T14:51:34.758Z,99735.22
2022-09-07T14:54:06.649Z,99727.63
2022-09-07T14:56:36.898Z,99727.31
2022-09-07T14:59:29.558Z,99732.25
2022-09-07T15:02:33.729Z,99722.34
2022-09-07T15:05:31.824Z,99729.34
2022-09-07T15:08:01.573Z,99720.31
2022-09-07T15:10:35.338Z,99719.38
2022-09-07T15:13:05.726Z,99717.19
2022-09-07T15:15:37.548Z,99704.97
2022-09-07T15:18:27.918Z,99702.94
2022-09-07T15:20:56.501Z,99695.06
2022-09-07T15:23:24.502Z,99709.13
2022-09-07T15:25:54.170Z,99701.38
2022-09-07T15:34:10.260Z,99688.56
2022-09-07T15:36:40.826Z,99692.00
2022-09-07T15:39:17.499Z,99701.81
2022-09-07T15:41:46.304Z,99700.34
2022-09-07T15:44:15.105Z,99687.91
2022-09-07T15:47:42.458Z,99702.22
2022-09-07T15:49:34.991Z,99706.59
2022-09-07T15:52:05.255Z,99701.00
2022-09-07T15:54:35.324Z,99707.28
2022-09-07T15:59:53.524Z,99699.94
2022-09-07T16:11:05.300Z,99696.28
2022-09-07T16:13:34.587Z,99690.06
2022-09-07T16:16:05.854Z,99695.69
2022-09-07T16:18:36.255Z,99686.47
2022-09-07T16:21:11.933Z,99694.50
2022-09-07T16:23:42.294Z,99685.53
2022-09-07T16:26:11.578Z,99694.63
2022-09-07T16:28:41.096Z,99685.50
2022-09-07T16:31:14.008Z,99689.81
2022-09-07T16:33:43.322Z,99686.00
2022-09-07T16:36:14.430Z,99686.63
2022-09-07T16:38:44.660Z,99686.72
2022-09-07T16:41:14.601Z,99685.22
2022-09-07T16:43:42.559Z,99679.81
2022-09-07T16:46:14.065Z,99685.69
2022-09-07T16:48:44.399Z,99675.31
2022-09-07T16:51:14.633Z,99675.53
2022-09-07T16:53:43.046Z,99680.25
2022-09-07T16:56:16.854Z,99681.25
2022-09-07T16:58:50.052Z,99683.47
2022-09-07T17:01:21.560Z,99676.81
2022-09-07T17:03:52.050Z,99677.53
2022-09-07T17:06:21.811Z,99678.81
2022-09-07T17:08:49.890Z,99667.25
2022-09-07T17:11:20.292Z,99669.22
2022-09-07T17:13:48.924Z,99668.53
2022-09-07T17:16:19.820Z,99664.47
2022-09-07T17:21:42.532Z,99661.44
2022-09-07T17:24:14.746Z,99655.19
2022-09-07T17:26:43.177Z,99655.66
2022-09-07T17:29:13.127Z,99653.00
2022-09-07T17:34:31.250Z,99661.06
2022-09-07T17:37:00.611Z,99657.75
2022-09-07T17:39:29.166Z,99652.66
2022-09-07T17:41:57.806Z,99658.59
2022-09-07T17:44:26.330Z,99666.38
2022-09-07T17:46:54.468Z,99659.41
2022-09-07T17:49:22.918Z,99670.47
2022-09-07T17:51:52.294Z,99667.75
2022-09-07T17:54:20.359Z,99656.00
2022-09-07T17:56:48.232Z,99661.16
2022-09-07T18:02:04.521Z,99661.97
2022-09-07T18:04:35.759Z,99658.97
2022-09-07T18:07:05.172Z,99650.34
2022-09-07T18:09:33.066Z,99646.34
2022-09-07T18:12:02.027Z,99648.97
2022-09-07T18:14:31.188Z,99650.84
2022-09-07T18:16:59.307Z,99647.13
2022-09-07T18:19:27.498Z,99655.69
2022-09-07T18:21:55.698Z,99654.75
2022-09-07T18:24:25.632Z,99653.22
2022-09-07T18:26:54.591Z,99654.06
2022-09-07T18:29:31.380Z,99657.16
2022-09-07T18:32:02.161Z,99659.84
2022-09-07T18:34:32.536Z,99667.66
2022-09-07T18:37:00.792Z,99665.66
2022-09-07T18:39:31.469Z,99662.84
2022-09-07T18:41:59.625Z,99667.81
2022-09-07T18:47:22.214Z,99662.13
2022-09-07T18:49:52.689Z,99657.66
2022-09-07T18:55:12.882Z,99643.16
2022-09-07T18:57:41.270Z,99642.31
2022-09-07T19:00:11.741Z,99649.38
2022-09-07T19:02:40.415Z,99653.38
2022-09-07T19:07:56.820Z,99670.16
2022-09-07T19:10:26.765Z,99662.50
2022-09-07T19:12:54.840Z,99664.84
2022-09-07T19:15:23.753Z,99668.56
2022-09-07T19:17:52.172Z,99669.50
2022-09-07T19:20:20.290Z,99666.00
2022-09-07T19:22:49.139Z,99667.28
2022-09-07T19:25:19.498Z,99664.41
2022-09-07T19:27:48.932Z,99663.91
2022-09-07T19:30:17.529Z,99656.81
2022-09-07T19:32:45.666Z,99659.09
2022-09-07T19:41:05.225Z,99663.97
2022-09-07T19:43:36.887Z,99658.75
2022-09-07T19:46:05.330Z,99654.03
2022-09-07T19:48:34.135Z,99642.16
2022-09-07T19:51:02.981Z,99641.09
2022-09-07T19:53:33.886Z,99639.00
2022-09-07T19:56:06.944Z,99637.53
2022-09-07T19:58:41.052Z,99632.13
2022-09-07T20:01:11.411Z,99626.41
2022-09-07T20:03:39.613Z,99621.75
2022-09-07T20:06:08.788Z,99619.75
2022-09-07T20:08:37.078Z,99605.91
2022-09-07T20:11:08.370Z,99595.34
2022-09-07T20:13:37.991Z,99577.19
2022-09-07T20:16:09.210Z,99563.00
2022-09-07T20:18:37.942Z,99567.91
2022-09-07T20:21:07.122Z,99567.91
2022-09-07T20:23:36.374Z,99566.38
2022-09-07T20:26:08.195Z,99565.22
2022-09-07T20:28:38.589Z,99568.44
2022-09-07T20:31:08.543Z,99573.38
2022-09-07T20:33:38.168Z,99575.91
2022-09-07T20:36:09.822Z,99566.88
2022-09-07T20:38:43.342Z,99556.84
2022-09-07T20:41:16.612Z,99563.59
2022-09-07T20:43:48.118Z,99564.44
2022-09-07T20:46:18.576Z,99563.09
2022-09-07T20:48:50.205Z,99571.19
2022-09-07T20:51:21.216Z,99578.13
2022-09-07T20:53:53.995Z,99576.94
2022-09-07T20:56:24.054Z,99578.56
2022-09-07T21:01:29.686Z,99584.31
2022-09-07T21:04:01.804Z,99583.81
2022-09-07T21:06:32.276Z,99583.50
2022-09-07T21:09:00.930Z,99581.28
2022-09-07T21:11:31.654Z,99574.94
2022-09-07T21:14:02.995Z,99568.91
2022-09-07T21:16:31.890Z,99574.34
2022-09-07T21:19:04.305Z,99571.25
2022-09-07T21:21:38.843Z,99568.88
2022-09-07T21:24:08.611Z,99571.38
2022-09-07T21:26:37.701Z,99569.91
2022-09-07T21:29:17.189Z,99577.22
2022-09-07T21:31:45.753Z,99572.69
2022-09-07T21:34:13.828Z,99565.00
2022-09-07T21:36:42.543Z,99564.72
2022-09-07T21:39:14.673Z,99566.84
2022-09-07T21:41:43.700Z,99572.97
2022-09-07T21:44:16.858Z,99560.75
2022-09-07T21:46:45.737Z,99562.84
2022-09-07T21:49:13.998Z,99564.06
2022-09-07T21:51:41.916Z,99559.81
2022-09-07T21:54:10.520Z,99565.91
2022-09-07T21:56:43.149Z,99563.16
2022-09-07T21:59:16.560Z,99559.66
2022-09-07T22:01:45.158Z,99553.28
2022-09-07T22:04:13.704Z,99561.00
2022-09-07T22:06:44.193Z,99562.66
2022-09-07T22:09:12.380Z,99555.56
2022-09-07T22:32:11.545Z,99532.78
2022-09-07T22:34:40.051Z,99533.50
2022-09-07T22:37:08.426Z,99523.94
2022-09-07T22:39:36.613Z,99517.34
2022-09-07T22:42:05.473Z,99517.06
2022-09-07T22:44:33.815Z,99508.25
2022-09-07T22:47:02.515Z,99495.53
2022-09-07T22:49:32.153Z,99476.41
2022-09-07T22:52:00.160Z,99483.69
2022-09-07T22:54:28.534Z,99470.66
2022-09-07T22:56:56.524Z,99484.16
2022-09-07T22:59:24.979Z,99468.00
2022-09-07T23:01:53.224Z,99471.84
2022-09-07T23:04:21.549Z,99466.63
2022-09-07T23:06:51.052Z,99461.41
2022-09-07T23:09:20.834Z,99462.88
2022-09-07T23:11:49.282Z,99458.06
2022-09-07T23:14:23.901Z,99459.03
2022-09-07T23:16:52.049Z,99453.91
2022-09-07T23:19:20.888Z,99459.66
2022-09-07T23:21:50.625Z,99457.38
2022-09-07T23:24:20.352Z,99455.91
2022-09-07T23:26:49.278Z,99454.81
2022-09-07T23:29:17.578Z,99448.16
2022-09-07T23:31:47.085Z,99450.44
2022-09-07T23:34:15.453Z,99449.81
2022-09-07T23:36:43.375Z,99447.13
2022-09-07T23:39:15.435Z,99435.63
2022-09-07T23:41:43.639Z,99425.38
2022-09-07T23:44:11.826Z,99426.75
2022-09-07T23:46:40.018Z,99434.63
2022-09-07T23:49:08.073Z,99434.63
2022-09-07T23:51:36.124Z,99424.16
2022-09-07T23:54:04.123Z,99413.47
2022-09-07T23:56:33.382Z,99421.81
2022-09-07T23:59:01.557Z,99441.75
